createdAt,value
2022-11-24T00:03:40.717Z,988.16
2022-11-24T00:09:23.906Z,988.14
2022-11-24T00:15:07.489Z,988.31
2022-11-24T00:20:56.330Z,988.34
2022-11-24T00:26:39.309Z,988.36
2022-11-24T00:32:22.419Z,988.36
2022-11-24T00:38:05.665Z,988.31
2022-11-24T00:43:48.739Z,988.33
2022-11-24T00:49:31.948Z,988.38
2022-11-24T00:55:15.006Z,988.46
2022-11-24T01:01:02.207Z,988.43
2022-11-24T01:06:45.297Z,988.57
2022-11-24T01:12:28.602Z,988.54
2022-11-24T01:18:11.637Z,988.5
2022-11-24T01:23:54.838Z,988.48
2022-11-24T01:29:37.917Z,988.53
2022-11-24T01:35:21.083Z,988.67
2022-11-24T01:41:07.980Z,988.59
2022-11-24T01:46:53.208Z,988.69
2022-11-24T01:52:38.593Z,988.78
2022-11-24T01:58:24.500Z,988.8
2022-11-24T02:04:10.766Z,989.02
2022-11-24T02:09:56.509Z,988.91
2022-11-24T02:15:40.619Z,988.99
2022-11-24T02:21:23.925Z,989.02
2022-11-24T02:27:07.065Z,989.1
2022-11-24T02:32:50.718Z,989.12
2022-11-24T02:38:35.874Z,989.23
2022-11-24T02:44:20.881Z,989.25
2022-11-24T02:50:04.293Z,989.41
2022-11-24T02:55:48.484Z,989.43
2022-11-24T03:01:31.683Z,989.64
2022-11-24T03:07:16.137Z,989.75
2022-11-24T03:12:59.190Z,989.92
2022-11-24T03:18:42.298Z,990.08
2022-11-24T03:24:25.271Z,990.57
2022-11-24T03:30:09.060Z,990.43
2022-11-24T03:35:52.006Z,990.09
2022-11-24T03:41:35.077Z,990
2022-11-24T03:47:17.966Z,990.05
2022-11-24T03:53:00.865Z,990.19
2022-11-24T03:58:44.021Z,990.23
2022-11-24T04:04:27.165Z,990.33
2022-11-24T04:10:10.823Z,990.46
2022-11-24T04:15:54.296Z,990.59
2022-11-24T04:21:38.333Z,990.93
2022-11-24T04:27:21.369Z,991.15
2022-11-24T04:33:04.464Z,991.17
2022-11-24T04:39:19.263Z,991.22
2022-11-24T04:44:50.432Z,990.77
2022-11-24T04:50:33.589Z,990.85
2022-11-24T04:56:16.519Z,991.05
2022-11-24T05:02:00.054Z,991.19
2022-11-24T05:07:43.660Z,991.28
2022-11-24T05:13:26.872Z,991.4
2022-11-24T05:19:10.899Z,991.38
2022-11-24T05:24:54.773Z,991.49
2022-11-24T05:30:38.246Z,991.62
2022-11-24T05:36:21.326Z,991.62
2022-11-24T05:42:05.351Z,991.74
2022-11-24T05:47:49.079Z,991.84
2022-11-24T05:53:31.886Z,991.86
2022-11-24T05:59:14.901Z,991.87
2022-11-24T06:04:58.050Z,992.05
2022-11-24T06:10:40.951Z,992.06
2022-11-24T06:16:24.259Z,992.16
2022-11-24T06:22:07.645Z,992.22
2022-11-24T06:27:50.715Z,992.28
2022-11-24T06:33:37.441Z,992.45
2022-11-24T06:39:20.517Z,992.51
2022-11-24T06:45:09.500Z,992.57
2022-11-24T06:50:53.267Z,992.71
2022-11-24T06:56:36.624Z,992.82
2022-11-24T07:02:19.845Z,993.03
2022-11-24T07:08:03.468Z,993.05
2022-11-24T07:13:46.945Z,993.1
2022-11-24T07:19:29.959Z,993.27
2022-11-24T07:25:13.243Z,993.39
2022-11-24T07:30:56.457Z,993.52
2022-11-24T07:36:42.912Z,993.63
2022-11-24T07:42:25.695Z,993.79
2022-11-24T07:48:08.918Z,993.77
2022-11-24T07:53:51.836Z,993.87
2022-11-24T07:59:34.820Z,993.96
2022-11-24T08:05:17.972Z,994.06
2022-11-24T08:11:04.628Z,994.19
2022-11-24T08:16:47.936Z,994.22
2022-11-24T08:22:31.158Z,994.33
2022-11-24T08:28:15.468Z,994.37
2022-11-24T08:33:59.717Z,994.41
2022-11-24T08:39:42.762Z,994.52
2022-11-24T08:45:29.531Z,994.64
2022-11-24T08:51:24.125Z,994.74
2022-11-24T08:57:07.516Z,994.86
2022-11-24T09:02:52.931Z,994.93
2022-11-24T09:08:36.196Z,994.95
2022-11-24T09:14:20.295Z,994.95
2022-11-24T09:20:03.210Z,994.93
2022-11-24T09:25:46.253Z,994.95
2022-11-24T09:31:31.732Z,995
2022-11-24T09:37:14.978Z,995.05
2022-11-24T09:43:01.164Z,995.15
2022-11-24T09:48:47.020Z,995.21
2022-11-24T09:54:31.184Z,995.33
2022-11-24T10:00:15.670Z,995.42
2022-11-24T10:05:59.897Z,995.46
2022-11-24T10:11:44.935Z,995.53
2022-11-24T10:17:34.960Z,995.48
2022-11-24T10:23:25.850Z,995.49
2022-11-24T10:29:17.613Z,995.57
2022-11-24T10:35:03.593Z,995.63
2022-11-24T10:40:58.159Z,995.57
2022-11-24T10:46:42.015Z,995.65
2022-11-24T10:52:25.516Z,995.67
2022-11-24T10:58:18.360Z,995.61
2022-11-24T11:04:01.318Z,995.61
2022-11-24T11:09:44.184Z,995.67
2022-11-24T11:15:30.668Z,995.65
2022-11-24T11:21:18.881Z,995.61
2022-11-24T11:27:06.100Z,995.47
2022-11-24T11:38:59.279Z,995.46
2022-11-24T11:44:46.207Z,995.49
2022-11-24T11:50:42.853Z,995.48
2022-11-24T11:56:33.858Z,995.43
2022-11-24T12:02:26.008Z,995.41
2022-11-24T12:08:21.722Z,995.44
2022-11-24T12:14:12.460Z,995.48
2022-11-24T12:20:03.958Z,995.39
2022-11-24T12:25:50.159Z,995.32
2022-11-24T12:31:38.289Z,995.12
2022-11-24T12:37:29.086Z,995
2022-11-24T12:43:16.672Z,995.02
2022-11-24T12:49:05.256Z,994.98
2022-11-24T12:54:48.465Z,995.03
2022-11-24T13:00:35.363Z,995.02
2022-11-24T13:06:20.624Z,994.98
2022-11-24T13:12:14.401Z,994.99
2022-11-24T13:18:10.366Z,994.9
2022-11-24T13:24:00.622Z,994.85
2022-11-24T13:29:44.214Z,994.83
2022-11-24T13:35:27.354Z,994.92
2022-11-24T13:41:28.415Z,995.07
2022-11-24T13:47:17.259Z,995.13
2022-11-24T13:53:05.953Z,995.24
2022-11-24T13:58:50.297Z,995.17
2022-11-24T14:04:34.381Z,995.17
2022-11-24T14:10:20.696Z,995.11
2022-11-24T14:16:06.170Z,995.08
2022-11-24T14:21:50.027Z,995.05
2022-11-24T14:27:36.511Z,995.09
2022-11-24T14:33:20.779Z,995.05
2022-11-24T14:39:05.887Z,995.04
2022-11-24T14:44:51.053Z,995.04
2022-11-24T14:50:34.356Z,994.91
2022-11-24T14:56:28.266Z,994.79
2022-11-24T15:02:22.267Z,994.82
2022-11-24T15:08:05.629Z,994.8
2022-11-24T15:13:55.352Z,994.84
2022-11-24T15:19:40.330Z,994.78
2022-11-24T15:25:33.850Z,994.7
2022-11-24T15:31:17.219Z,994.66
2022-11-24T15:37:00.898Z,994.69
2022-11-24T15:42:44.940Z,994.71
2022-11-24T15:48:27.927Z,994.7
2022-11-24T15:54:13.732Z,994.71
2022-11-24T15:59:56.771Z,994.76
2022-11-24T16:05:40.048Z,994.8
2022-11-24T16:11:23.535Z,994.82
2022-11-24T16:17:06.680Z,994.83
2022-11-24T16:22:51.388Z,994.8
2022-11-24T16:28:35.723Z,994.83
2022-11-24T16:34:19.845Z,994.86
2022-11-24T16:40:03.238Z,994.87
2022-11-24T16:45:46.817Z,994.94
2022-11-24T16:51:35.360Z,994.89
2022-11-24T16:57:18.748Z,994.93
2022-11-24T17:03:01.865Z,994.88
2022-11-24T17:08:46.032Z,994.88
2022-11-24T17:14:29.581Z,994.74
2022-11-24T17:20:13.145Z,994.7
2022-11-24T17:26:01.165Z,994.65
2022-11-24T17:31:44.305Z,994.72
2022-11-24T17:37:27.801Z,994.67
2022-11-24T17:43:11.159Z,994.64
2022-11-24T17:48:54.497Z,994.51
2022-11-24T17:54:56.894Z,994.51
2022-11-24T18:00:30.704Z,994.49
2022-11-24T18:06:15.234Z,994.4
2022-11-24T18:11:58.243Z,994.45
2022-11-24T18:17:41.189Z,994.48
2022-11-24T18:23:24.402Z,994.49
2022-11-24T18:29:07.536Z,994.37
2022-11-24T18:34:50.449Z,994.31
2022-11-24T18:40:33.294Z,994.28
2022-11-24T18:46:17.637Z,994.3
2022-11-24T18:52:00.915Z,994.4
2022-11-24T18:57:43.904Z,994.52
2022-11-24T19:03:26.897Z,994.68
2022-11-24T19:09:12.572Z,994.68
2022-11-24T19:14:55.573Z,994.59
2022-11-24T19:20:38.719Z,994.63
2022-11-24T19:26:22.064Z,994.56
2022-11-24T19:32:05.712Z,994.32
2022-11-24T19:37:48.764Z,994.44
2022-11-24T19:43:33.006Z,994.36
2022-11-24T19:49:16.910Z,994.34
2022-11-24T19:54:59.899Z,994.33
2022-11-24T20:00:43.075Z,994.34
2022-11-24T20:06:27.822Z,994.18
2022-11-24T20:12:10.791Z,994.14
2022-11-24T20:17:54.899Z,994.18
2022-11-24T20:23:37.892Z,994.12
2022-11-24T20:29:21.283Z,993.97
2022-11-24T20:35:04.496Z,993.95
2022-11-24T20:40:47.626Z,993.95
2022-11-24T20:46:31.617Z,993.9
2022-11-24T20:52:14.609Z,993.83
2022-11-24T20:57:57.778Z,993.88
2022-11-24T21:03:44.181Z,993.91
2022-11-24T21:09:27.245Z,993.87
2022-11-24T21:15:10.789Z,993.86
2022-11-24T21:20:54.103Z,993.81
2022-11-24T21:26:39.496Z,993.81
2022-11-24T21:32:22.630Z,993.83
2022-11-24T21:38:05.814Z,993.78
2022-11-24T21:43:49.003Z,993.68
2022-11-24T21:49:32.311Z,993.66
2022-11-24T21:55:15.860Z,993.68
2022-11-24T22:01:01.850Z,993.68
2022-11-24T22:06:45.457Z,993.69
2022-11-24T22:12:29.368Z,993.62
2022-11-24T22:18:12.633Z,993.64
2022-11-24T22:23:55.873Z,993.69
2022-11-24T22:29:38.977Z,993.69
2022-11-24T22:35:22.084Z,993.69
2022-11-24T22:41:08.514Z,993.66
2022-11-24T22:46:51.619Z,993.72
2022-11-24T22:52:34.772Z,993.72
2022-11-24T22:58:17.946Z,993.74
2022-11-24T23:04:01.250Z,993.76
2022-11-24T23:09:44.571Z,993.67
2022-11-24T23:15:27.645Z,993.66
2022-11-24T23:21:12.069Z,993.6
2022-11-24T23:26:55.166Z,993.58
2022-11-24T23:32:38.276Z,993.52
2022-11-24T23:38:21.652Z,993.38
2022-11-24T23:44:05.218Z,993.2
2022-11-24T23:49:49.430Z,993.18
2022-11-24T23:55:32.721Z,993.34
